sensor_id;sensor_type;location;lat;lon;timestamp;pressure;altitude;pressure_sealevel;temperature;humidity
6942;BME280;3510;43.200;27.920;2022-11-14T00:01:30;102314.81;;;17.06;55.02
6942;BME280;3510;43.200;27.920;2022-11-14T00:03:57;102308.25;;;17.40;54.28
6942;BME280;3510;43.200;27.920;2022-11-14T00:06:24;102310.03;;;17.31;55.04
6942;BME280;3510;43.200;27.920;2022-11-14T00:08:51;102305.38;;;16.74;56.21
6942;BME280;3510;43.200;27.920;2022-11-14T00:11:18;102303.13;;;16.87;56.04
6942;BME280;3510;43.200;27.920;2022-11-14T00:13:45;102303.53;;;17.45;54.54
6942;BME280;3510;43.200;27.920;2022-11-14T00:16:13;102300.19;;;17.03;55.17
6942;BME280;3510;43.200;27.920;2022-11-14T00:18:40;102308.53;;;17.33;53.79
6942;BME280;3510;43.200;27.920;2022-11-14T00:21:07;102300.81;;;16.80;55.42
6942;BME280;3510;43.200;27.920;2022-11-14T00:23:34;102303.72;;;16.75;55.66
6942;BME280;3510;43.200;27.920;2022-11-14T00:26:01;102306.44;;;15.87;57.82
6942;BME280;3510;43.200;27.920;2022-11-14T00:28:28;102285.84;;;16.24;56.75
6942;BME280;3510;43.200;27.920;2022-11-14T00:30:55;102288.88;;;16.19;57.03
6942;BME280;3510;43.200;27.920;2022-11-14T00:33:23;102290.78;;;16.12;56.94
6942;BME280;3510;43.200;27.920;2022-11-14T00:35:51;102282.25;;;16.11;57.45
6942;BME280;3510;43.200;27.920;2022-11-14T00:38:19;102285.72;;;16.22;57.07
6942;BME280;3510;43.200;27.920;2022-11-14T00:40:46;102286.69;;;16.04;56.90
6942;BME280;3510;43.200;27.920;2022-11-14T00:43:13;102280.41;;;15.90;57.45
6942;BME280;3510;43.200;27.920;2022-11-14T00:45:42;102290.50;;;15.51;58.92
6942;BME280;3510;43.200;27.920;2022-11-14T00:48:09;102274.50;;;15.70;57.70
6942;BME280;3510;43.200;27.920;2022-11-14T00:50:38;102273.91;;;15.16;59.43
6942;BME280;3510;43.200;27.920;2022-11-14T00:53:12;102278.94;;;15.25;58.93
6942;BME280;3510;43.200;27.920;2022-11-14T00:55:45;102281.41;;;15.63;57.54
6942;BME280;3510;43.200;27.920;2022-11-14T00:58:12;102269.94;;;15.66;57.25
6942;BME280;3510;43.200;27.920;2022-11-14T01:00:39;102275.13;;;15.49;57.35
6942;BME280;3510;43.200;27.920;2022-11-14T01:03:05;102265.75;;;15.48;57.49
6942;BME280;3510;43.200;27.920;2022-11-14T01:05:32;102272.31;;;15.46;57.32
6942;BME280;3510;43.200;27.920;2022-11-14T01:08:01;102268.50;;;15.41;57.55
6942;BME280;3510;43.200;27.920;2022-11-14T01:10:28;102266.44;;;15.37;57.11
6942;BME280;3510;43.200;27.920;2022-11-14T01:12:55;102255.72;;;15.49;57.34
6942;BME280;3510;43.200;27.920;2022-11-14T01:15:22;102258.31;;;14.93;58.28
6942;BME280;3510;43.200;27.920;2022-11-14T01:17:49;102261.31;;;15.27;56.84
6942;BME280;3510;43.200;27.920;2022-11-14T01:20:16;102259.66;;;15.27;57.20
6942;BME280;3510;43.200;27.920;2022-11-14T01:22:43;102256.38;;;14.90;57.97
6942;BME280;3510;43.200;27.920;2022-11-14T01:25:11;102261.22;;;15.16;57.71
6942;BME280;3510;43.200;27.920;2022-11-14T01:27:38;102261.19;;;14.32;59.98
6942;BME280;3510;43.200;27.920;2022-11-14T01:30:06;102267.25;;;14.43;59.62
6942;BME280;3510;43.200;27.920;2022-11-14T01:32:35;102247.13;;;14.08;60.78
6942;BME280;3510;43.200;27.920;2022-11-14T01:35:02;102233.09;;;14.20;59.74
6942;BME280;3510;43.200;27.920;2022-11-14T01:37:29;102243.41;;;14.04;60.84
6942;BME280;3510;43.200;27.920;2022-11-14T01:39:56;102246.00;;;14.23;59.68
6942;BME280;3510;43.200;27.920;2022-11-14T01:42:24;102243.41;;;14.04;60.19
6942;BME280;3510;43.200;27.920;2022-11-14T01:44:52;102246.19;;;14.16;59.86
6942;BME280;3510;43.200;27.920;2022-11-14T01:47:22;102249.41;;;14.33;60.02
6942;BME280;3510;43.200;27.920;2022-11-14T01:49:52;102229.38;;;14.17;60.01
6942;BME280;3510;43.200;27.920;2022-11-14T01:52:22;102245.19;;;14.42;59.57
6942;BME280;3510;43.200;27.920;2022-11-14T01:54:52;102234.69;;;14.56;59.51
6942;BME280;3510;43.200;27.920;2022-11-14T01:57:24;102238.88;;;15.60;56.20
6942;BME280;3510;43.200;27.920;2022-11-14T01:59:56;102237.97;;;15.68;56.42
6942;BME280;3510;43.200;27.920;2022-11-14T02:02:25;102235.19;;;15.28;56.63
6942;BME280;3510;43.200;27.920;2022-11-14T02:04:56;102230.56;;;15.13;57.05
6942;BME280;3510;43.200;27.920;2022-11-14T02:07:26;102237.50;;;15.35;57.54
6942;BME280;3510;43.200;27.920;2022-11-14T02:09:54;102238.47;;;15.27;57.41
6942;BME280;3510;43.200;27.920;2022-11-14T02:12:23;102224.41;;;15.30;57.67
6942;BME280;3510;43.200;27.920;2022-11-14T02:14:53;102235.63;;;15.42;57.27
6942;BME280;3510;43.200;27.920;2022-11-14T02:17:22;102224.81;;;15.54;56.49
6942;BME280;3510;43.200;27.920;2022-11-14T02:19:51;102227.47;;;15.55;56.72
6942;BME280;3510;43.200;27.920;2022-11-14T02:22:19;102217.13;;;15.14;58.01
6942;BME280;3510;43.200;27.920;2022-11-14T02:24:46;102222.47;;;15.17;57.59
6942;BME280;3510;43.200;27.920;2022-11-14T02:27:14;102235.47;;;14.74;58.72
6942;BME280;3510;43.200;27.920;2022-11-14T02:29:42;102240.44;;;14.72;59.18
6942;BME280;3510;43.200;27.920;2022-11-14T02:32:09;102235.56;;;15.03;57.87
6942;BME280;3510;43.200;27.920;2022-11-14T02:34:36;102240.28;;;14.43;59.35
6942;BME280;3510;43.200;27.920;2022-11-14T02:37:04;102235.41;;;14.00;60.28
6942;BME280;3510;43.200;27.920;2022-11-14T02:39:32;102232.16;;;14.20;60.26
6942;BME280;3510;43.200;27.920;2022-11-14T02:41:59;102237.16;;;14.01;61.11
6942;BME280;3510;43.200;27.920;2022-11-14T02:44:26;102236.78;;;13.88;61.63
6942;BME280;3510;43.200;27.920;2022-11-14T02:46:53;102237.22;;;14.56;59.42
6942;BME280;3510;43.200;27.920;2022-11-14T02:49:20;102215.31;;;14.57;59.60
6942;BME280;3510;43.200;27.920;2022-11-14T02:51:47;102228.06;;;15.23;58.33
6942;BME280;3510;43.200;27.920;2022-11-14T02:54:14;102232.19;;;14.94;58.57
6942;BME280;3510;43.200;27.920;2022-11-14T02:56:43;102231.28;;;15.60;57.55
6942;BME280;3510;43.200;27.920;2022-11-14T02:59:09;102246.34;;;15.78;56.34
6942;BME280;3510;43.200;27.920;2022-11-14T03:01:36;102241.41;;;15.69;56.35
6942;BME280;3510;43.200;27.920;2022-11-14T03:04:04;102231.94;;;14.91;58.42
6942;BME280;3510;43.200;27.920;2022-11-14T03:06:31;102237.09;;;14.46;59.69
6942;BME280;3510;43.200;27.920;2022-11-14T03:08:58;102238.47;;;14.51;59.68
6942;BME280;3510;43.200;27.920;2022-11-14T03:11:25;102238.28;;;14.22;59.92
6942;BME280;3510;43.200;27.920;2022-11-14T03:13:53;102241.03;;;14.06;60.01
6942;BME280;3510;43.200;27.920;2022-11-14T03:16:20;102236.16;;;14.26;60.49
6942;BME280;3510;43.200;27.920;2022-11-14T03:18:47;102233.69;;;14.18;60.45
6942;BME280;3510;43.200;27.920;2022-11-14T03:21:16;102214.16;;;14.53;58.89
6942;BME280;3510;43.200;27.920;2022-11-14T03:23:43;102240.03;;;14.32;59.68
6942;BME280;3510;43.200;27.920;2022-11-14T03:26:11;102237.34;;;14.85;58.46
6942;BME280;3510;43.200;27.920;2022-11-14T03:28:39;102241.53;;;15.52;56.70
6942;BME280;3510;43.200;27.920;2022-11-14T03:31:10;102234.00;;;15.43;56.90
6942;BME280;3510;43.200;27.920;2022-11-14T03:33:37;102245.75;;;15.32;56.93
6942;BME280;3510;43.200;27.920;2022-11-14T03:36:05;102241.03;;;15.08;57.46
6942;BME280;3510;43.200;27.920;2022-11-14T03:38:32;102235.09;;;14.61;58.90
6942;BME280;3510;43.200;27.920;2022-11-14T03:40:59;102245.63;;;14.93;57.84
6942;BME280;3510;43.200;27.920;2022-11-14T03:43:29;102235.81;;;15.25;57.35
6942;BME280;3510;43.200;27.920;2022-11-14T03:45:57;102226.22;;;14.74;57.28
6942;BME280;3510;43.200;27.920;2022-11-14T03:48:26;102242.19;;;14.73;57.68
6942;BME280;3510;43.200;27.920;2022-11-14T03:50:53;102232.94;;;15.12;56.10
6942;BME280;3510;43.200;27.920;2022-11-14T03:53:20;102247.38;;;15.13;55.69
6942;BME280;3510;43.200;27.920;2022-11-14T03:55:48;102240.00;;;14.87;56.43
6942;BME280;3510;43.200;27.920;2022-11-14T03:58:15;102245.16;;;14.97;57.02
6942;BME280;3510;43.200;27.920;2022-11-14T04:00:42;102249.25;;;14.86;57.20
6942;BME280;3510;43.200;27.920;2022-11-14T04:03:09;102248.13;;;14.55;58.04
6942;BME280;3510;43.200;27.920;2022-11-14T04:05:37;102246.81;;;14.50;58.85
6942;BME280;3510;43.200;27.920;2022-11-14T04:08:04;102250.06;;;14.49;58.78
6942;BME280;3510;43.200;27.920;2022-11-14T04:10:32;102251.06;;;14.23;59.50
6942;BME280;3510;43.200;27.920;2022-11-14T04:12:59;102248.88;;;14.54;58.60
6942;BME280;3510;43.200;27.920;2022-11-14T04:15:26;102256.50;;;14.73;58.43
6942;BME280;3510;43.200;27.920;2022-11-14T04:17:55;102247.06;;;14.99;57.45
6942;BME280;3510;43.200;27.920;2022-11-14T04:20:22;102244.91;;;14.39;58.10
6942;BME280;3510;43.200;27.920;2022-11-14T04:22:51;102246.28;;;14.35;58.34
6942;BME280;3510;43.200;27.920;2022-11-14T04:25:18;102235.06;;;13.61;60.46
6942;BME280;3510;43.200;27.920;2022-11-14T04:27:45;102253.38;;;13.58;60.82
6942;BME280;3510;43.200;27.920;2022-11-14T04:30:14;102232.81;;;13.64;60.33
6942;BME280;3510;43.200;27.920;2022-11-14T04:32:43;102242.22;;;14.01;59.57
6942;BME280;3510;43.200;27.920;2022-11-14T04:35:12;102259.94;;;13.21;60.82
6942;BME280;3510;43.200;27.920;2022-11-14T04:37:39;102254.88;;;13.47;59.80
6942;BME280;3510;43.200;27.920;2022-11-14T04:40:09;102234.66;;;13.47;60.07
6942;BME280;3510;43.200;27.920;2022-11-14T04:42:36;102238.00;;;14.19;58.57
6942;BME280;3510;43.200;27.920;2022-11-14T04:45:04;102258.72;;;14.15;58.52
6942;BME280;3510;43.200;27.920;2022-11-14T04:47:32;102250.84;;;14.12;59.08
6942;BME280;3510;43.200;27.920;2022-11-14T04:49:59;102252.00;;;14.15;58.42
6942;BME280;3510;43.200;27.920;2022-11-14T04:52:26;102249.38;;;14.05;58.25
6942;BME280;3510;43.200;27.920;2022-11-14T04:54:53;102253.28;;;13.93;58.27
6942;BME280;3510;43.200;27.920;2022-11-14T04:57:21;102257.16;;;13.89;58.44
6942;BME280;3510;43.200;27.920;2022-11-14T04:59:48;102262.03;;;14.50;56.77
6942;BME280;3510;43.200;27.920;2022-11-14T05:02:15;102259.34;;;14.76;56.01
6942;BME280;3510;43.200;27.920;2022-11-14T05:04:42;102257.38;;;14.46;56.26
6942;BME280;3510;43.200;27.920;2022-11-14T05:07:10;102244.13;;;13.76;57.65
6942;BME280;3510;43.200;27.920;2022-11-14T05:09:37;102266.50;;;13.54;58.86
6942;BME280;3510;43.200;27.920;2022-11-14T05:12:05;102270.06;;;13.65;59.20
6942;BME280;3510;43.200;27.920;2022-11-14T05:14:34;102266.63;;;13.55;59.46
6942;BME280;3510;43.200;27.920;2022-11-14T05:17:01;102255.16;;;13.59;59.33
6942;BME280;3510;43.200;27.920;2022-11-14T05:19:28;102277.06;;;13.41;59.73
6942;BME280;3510;43.200;27.920;2022-11-14T05:21:55;102276.88;;;13.66;58.96
6942;BME280;3510;43.200;27.920;2022-11-14T05:24:22;102240.53;;;13.74;58.65
6942;BME280;3510;43.200;27.920;2022-11-14T05:26:49;102280.81;;;13.27;59.81
6942;BME280;3510;43.200;27.920;2022-11-14T05:29:16;102276.56;;;13.71;58.93
6942;BME280;3510;43.200;27.920;2022-11-14T05:31:44;102282.38;;;13.53;59.68
6942;BME280;3510;43.200;27.920;2022-11-14T05:34:11;102266.50;;;13.54;59.54
6942;BME280;3510;43.200;27.920;2022-11-14T05:36:38;102249.03;;;13.74;58.78
6942;BME280;3510;43.200;27.920;2022-11-14T05:39:05;102288.53;;;13.46;59.81
6942;BME280;3510;43.200;27.920;2022-11-14T05:41:32;102294.28;;;13.02;60.66
6942;BME280;3510;43.200;27.920;2022-11-14T05:43:59;102287.88;;;13.05;60.94
6942;BME280;3510;43.200;27.920;2022-11-14T05:46:26;102288.66;;;13.48;59.60
6942;BME280;3510;43.200;27.920;2022-11-14T05:48:55;102278.06;;;13.69;59.33
6942;BME280;3510;43.200;27.920;2022-11-14T05:51:22;102282.25;;;13.69;59.01
6942;BME280;3510;43.200;27.920;2022-11-14T05:53:49;102297.00;;;13.47;59.58
6942;BME280;3510;43.200;27.920;2022-11-14T05:56:16;102287.78;;;13.39;60.19
6942;BME280;3510;43.200;27.920;2022-11-14T05:58:43;102285.81;;;13.62;59.84
6942;BME280;3510;43.200;27.920;2022-11-14T06:01:11;102293.56;;;13.72;59.54
6942;BME280;3510;43.200;27.920;2022-11-14T06:03:40;102295.47;;;13.75;59.02
6942;BME280;3510;43.200;27.920;2022-11-14T06:06:11;102287.53;;;13.98;58.42
6942;BME280;3510;43.200;27.920;2022-11-14T06:08:39;102292.97;;;13.58;58.70
6942;BME280;3510;43.200;27.920;2022-11-14T06:11:08;102291.28;;;13.84;58.40
6942;BME280;3510;43.200;27.920;2022-11-14T06:13:36;102281.91;;;13.74;58.11
6942;BME280;3510;43.200;27.920;2022-11-14T06:16:05;102292.31;;;13.86;57.97
6942;BME280;3510;43.200;27.920;2022-11-14T06:18:34;102282.81;;;13.75;58.21
6942;BME280;3510;43.200;27.920;2022-11-14T06:21:02;102295.47;;;13.84;58.76
6942;BME280;3510;43.200;27.920;2022-11-14T06:23:31;102306.66;;;13.51;59.11
6942;BME280;3510;43.200;27.920;2022-11-14T06:25:59;102302.94;;;13.47;58.87
6942;BME280;3510;43.200;27.920;2022-11-14T06:28:26;102268.50;;;13.75;58.34
6942;BME280;3510;43.200;27.920;2022-11-14T06:30:56;102303.22;;;13.42;59.77
6942;BME280;3510;43.200;27.920;2022-11-14T06:33:24;102304.84;;;13.67;59.20
6942;BME280;3510;43.200;27.920;2022-11-14T06:35:56;102292.00;;;13.92;58.63
6942;BME280;3510;43.200;27.920;2022-11-14T06:38:23;102294.50;;;14.09;58.85
6942;BME280;3510;43.200;27.920;2022-11-14T06:40:52;102260.13;;;13.94;58.65
6942;BME280;3510;43.200;27.920;2022-11-14T06:43:26;102299.00;;;14.31;58.10
6942;BME280;3510;43.200;27.920;2022-11-14T06:45:53;102294.63;;;14.47;58.06
6942;BME280;3510;43.200;27.920;2022-11-14T06:48:20;102299.72;;;14.74;57.06
6942;BME280;3510;43.200;27.920;2022-11-14T06:50:50;102289.03;;;14.68;57.85
6942;BME280;3510;43.200;27.920;2022-11-14T06:53:18;102279.59;;;14.76;57.13
6942;BME280;3510;43.200;27.920;2022-11-14T06:55:53;102291.22;;;15.20;56.51
6942;BME280;3510;43.200;27.920;2022-11-14T06:58:21;102296.91;;;14.99;56.88
6942;BME280;3510;43.200;27.920;2022-11-14T07:00:47;102285.72;;;14.06;58.76
6942;BME280;3510;43.200;27.920;2022-11-14T07:03:14;102282.38;;;14.24;58.89
6942;BME280;3510;43.200;27.920;2022-11-14T07:05:41;102285.81;;;14.24;59.10
6942;BME280;3510;43.200;27.920;2022-11-14T07:08:09;102282.06;;;14.57;58.36
6942;BME280;3510;43.200;27.920;2022-11-14T07:10:37;102275.28;;;14.75;58.19
6942;BME280;3510;43.200;27.920;2022-11-14T07:13:05;102274.97;;;14.72;58.25
6942;BME280;3510;43.200;27.920;2022-11-14T07:15:34;102282.06;;;14.85;58.19
6942;BME280;3510;43.200;27.920;2022-11-14T07:18:01;102279.41;;;14.83;59.25
6942;BME280;3510;43.200;27.920;2022-11-14T07:20:28;102283.13;;;15.24;57.72
6942;BME280;3510;43.200;27.920;2022-11-14T07:22:55;102265.59;;;15.17;57.42
6942;BME280;3510;43.200;27.920;2022-11-14T07:25:22;102257.91;;;15.55;56.45
6942;BME280;3510;43.200;27.920;2022-11-14T07:27:52;102266.09;;;15.42;56.65
6942;BME280;3510;43.200;27.920;2022-11-14T07:30:20;102283.03;;;16.10;56.10
6942;BME280;3510;43.200;27.920;2022-11-14T07:32:53;102280.25;;;16.28;55.71
6942;BME280;3510;43.200;27.920;2022-11-14T07:35:21;102280.88;;;16.15;55.81
6942;BME280;3510;43.200;27.920;2022-11-14T07:37:48;102278.03;;;16.02;56.25
6942;BME280;3510;43.200;27.920;2022-11-14T07:40:16;102285.75;;;16.32;55.40
6942;BME280;3510;43.200;27.920;2022-11-14T07:42:43;102274.91;;;15.75;56.58
6942;BME280;3510;43.200;27.920;2022-11-14T07:45:11;102276.88;;;15.88;56.83
6942;BME280;3510;43.200;27.920;2022-11-14T07:47:39;102270.72;;;15.76;57.04
6942;BME280;3510;43.200;27.920;2022-11-14T07:50:06;102267.72;;;15.90;56.77
6942;BME280;3510;43.200;27.920;2022-11-14T07:52:33;102267.00;;;15.72;56.79
6942;BME280;3510;43.200;27.920;2022-11-14T07:55:00;102257.41;;;15.59;57.01
6942;BME280;3510;43.200;27.920;2022-11-14T07:57:27;102272.78;;;15.90;57.02
6942;BME280;3510;43.200;27.920;2022-11-14T07:59:54;102273.25;;;15.76;57.06
6942;BME280;3510;43.200;27.920;2022-11-14T08:02:21;102282.00;;;16.08;55.70
6942;BME280;3510;43.200;27.920;2022-11-14T08:04:50;102276.94;;;15.69;56.80
6942;BME280;3510;43.200;27.920;2022-11-14T08:07:17;102280.91;;;15.86;56.83
6942;BME280;3510;43.200;27.920;2022-11-14T08:09:44;102271.72;;;16.07;56.19
6942;BME280;3510;43.200;27.920;2022-11-14T08:12:11;102283.59;;;15.87;57.25
6942;BME280;3510;43.200;27.920;2022-11-14T08:14:38;102284.50;;;15.98;56.57
6942;BME280;3510;43.200;27.920;2022-11-14T08:17:04;102287.22;;;16.10;56.25
6942;BME280;3510;43.200;27.920;2022-11-14T08:19:31;102271.13;;;16.30;55.70
6942;BME280;3510;43.200;27.920;2022-11-14T08:22:00;102279.56;;;16.69;55.27
6942;BME280;3510;43.200;27.920;2022-11-14T08:24:41;102272.63;;;16.28;55.75
6942;BME280;3510;43.200;27.920;2022-11-14T08:27:22;102264.88;;;16.06;56.43
6942;BME280;3510;43.200;27.920;2022-11-14T08:29:49;102271.06;;;15.99;55.94
6942;BME280;3510;43.200;27.920;2022-11-14T08:32:16;102277.97;;;16.31;55.85
6942;BME280;3510;43.200;27.920;2022-11-14T08:34:43;102269.88;;;16.55;55.00
6942;BME280;3510;43.200;27.920;2022-11-14T08:37:13;102241.78;;;16.54;55.13
6942;BME280;3510;43.200;27.920;2022-11-14T08:39:53;102259.06;;;16.17;55.47
6942;BME280;3510;43.200;27.920;2022-11-14T08:42:34;102265.59;;;16.85;54.20
6942;BME280;3510;43.200;27.920;2022-11-14T08:45:02;102271.19;;;16.91;54.41
6942;BME280;3510;43.200;27.920;2022-11-14T08:47:29;102266.13;;;16.81;53.99
6942;BME280;3510;43.200;27.920;2022-11-14T08:49:56;102249.13;;;17.22;53.55
6942;BME280;3510;43.200;27.920;2022-11-14T08:52:27;102259.84;;;16.98;53.62
6942;BME280;3510;43.200;27.920;2022-11-14T08:54:54;102248.06;;;16.88;54.00
6942;BME280;3510;43.200;27.920;2022-11-14T08:57:21;102247.28;;;16.79;54.48
6942;BME280;3510;43.200;27.920;2022-11-14T08:59:48;102253.88;;;17.07;53.73
6942;BME280;3510;43.200;27.920;2022-11-14T09:02:15;102250.81;;;17.11;53.58
6942;BME280;3510;43.200;27.920;2022-11-14T09:04:42;102253.44;;;17.65;52.16
6942;BME280;3510;43.200;27.920;2022-11-14T09:07:10;102248.75;;;17.92;51.41
6942;BME280;3510;43.200;27.920;2022-11-14T09:12:54;102246.94;;;17.37;52.53
6942;BME280;3510;43.200;27.920;2022-11-14T09:15:21;102251.31;;;17.17;53.25
6942;BME280;3510;43.200;27.920;2022-11-14T09:17:51;102237.28;;;17.65;52.16
6942;BME280;3510;43.200;27.920;2022-11-14T09:20:18;102198.81;;;18.28;50.51
6942;BME280;3510;43.200;27.920;2022-11-14T09:22:45;102239.84;;;18.31;50.73
6942;BME280;3510;43.200;27.920;2022-11-14T09:25:12;102233.53;;;18.37;50.69
6942;BME280;3510;43.200;27.920;2022-11-14T09:27:39;102237.38;;;18.21;51.09
6942;BME280;3510;43.200;27.920;2022-11-14T09:30:09;102238.38;;;18.56;50.20
6942;BME280;3510;43.200;27.920;2022-11-14T09:32:37;102235.44;;;19.56;48.04
6942;BME280;3510;43.200;27.920;2022-11-14T09:35:05;102204.56;;;20.01;46.89
6942;BME280;3510;43.200;27.920;2022-11-14T09:37:32;102234.88;;;19.72;47.02
6942;BME280;3510;43.200;27.920;2022-11-14T09:39:59;102206.91;;;19.50;47.41
6942;BME280;3510;43.200;27.920;2022-11-14T09:42:37;102219.94;;;19.18;48.22
6942;BME280;3510;43.200;27.920;2022-11-14T09:45:12;102204.28;;;19.25;47.79
6942;BME280;3510;43.200;27.920;2022-11-14T09:47:42;102225.38;;;20.19;46.56
6942;BME280;3510;43.200;27.920;2022-11-14T09:50:13;102225.22;;;20.04;46.37
6942;BME280;3510;43.200;27.920;2022-11-14T09:52:44;102230.59;;;19.00;46.89
6942;BME280;3510;43.200;27.920;2022-11-14T09:55:17;102213.16;;;18.83;45.60
6942;BME280;3510;43.200;27.920;2022-11-14T09:57:45;102211.34;;;20.26;43.45
6942;BME280;3510;43.200;27.920;2022-11-14T10:00:16;102192.56;;;20.64;42.41
6942;BME280;3510;43.200;27.920;2022-11-14T10:03:04;102210.13;;;19.71;43.38
6942;BME280;3510;43.200;27.920;2022-11-14T10:05:49;102196.06;;;20.14;42.59
6942;BME280;3510;43.200;27.920;2022-11-14T10:08:39;102214.25;;;19.33;44.63
6942;BME280;3510;43.200;27.920;2022-11-14T10:11:12;102204.34;;;19.98;43.29
6942;BME280;3510;43.200;27.920;2022-11-14T10:13:52;102197.94;;;19.92;43.68
6942;BME280;3510;43.200;27.920;2022-11-14T10:16:34;102181.22;;;18.88;45.43
6942;BME280;3510;43.200;27.920;2022-11-14T10:19:16;102195.59;;;19.58;44.09
6942;BME280;3510;43.200;27.920;2022-11-14T10:22:01;102190.72;;;19.86;43.44
6942;BME280;3510;43.200;27.920;2022-11-14T10:24:48;102182.03;;;20.72;41.82
6942;BME280;3510;43.200;27.920;2022-11-14T10:27:19;102178.81;;;21.15;41.44
6942;BME280;3510;43.200;27.920;2022-11-14T10:30:01;102191.47;;;20.22;42.65
6942;BME280;3510;43.200;27.920;2022-11-14T10:35:20;102181.91;;;19.94;43.07
6942;BME280;3510;43.200;27.920;2022-11-14T10:37:56;102171.84;;;19.47;43.89
6942;BME280;3510;43.200;27.920;2022-11-14T10:40:32;102182.00;;;20.21;43.45
6942;BME280;3510;43.200;27.920;2022-11-14T10:43:04;102175.44;;;20.49;42.53
6942;BME280;3510;43.200;27.920;2022-11-14T10:45:35;102186.41;;;20.10;42.61
6942;BME280;3510;43.200;27.920;2022-11-14T10:48:09;102160.81;;;18.88;45.39
6942;BME280;3510;43.200;27.920;2022-11-14T10:50:41;102165.22;;;19.26;44.98
6942;BME280;3510;43.200;27.920;2022-11-14T10:53:18;102140.63;;;19.03;45.12
6942;BME280;3510;43.200;27.920;2022-11-14T10:55:49;102097.22;;;18.21;46.19
6942;BME280;3510;43.200;27.920;2022-11-14T10:58:17;102161.25;;;19.18;44.72
6942;BME280;3510;43.200;27.920;2022-11-14T11:00:44;102156.84;;;19.52;43.65
6942;BME280;3510;43.200;27.920;2022-11-14T11:03:13;102145.34;;;18.51;45.62
6942;BME280;3510;43.200;27.920;2022-11-14T11:05:46;102171.03;;;20.22;42.60
6942;BME280;3510;43.200;27.920;2022-11-14T11:08:18;102179.34;;;20.19;42.81
6942;BME280;3510;43.200;27.920;2022-11-14T11:11:02;102176.28;;;18.10;46.41
6942;BME280;3510;43.200;27.920;2022-11-14T11:14:00;102164.69;;;19.06;44.80
6942;BME280;3510;43.200;27.920;2022-11-14T11:16:28;102170.34;;;18.79;45.17
6942;BME280;3510;43.200;27.920;2022-11-14T11:19:13;102150.81;;;19.03;44.89
6942;BME280;3510;43.200;27.920;2022-11-14T11:21:47;102156.47;;;19.71;43.56
6942;BME280;3510;43.200;27.920;2022-11-14T11:24:29;102165.84;;;19.35;43.97
6942;BME280;3510;43.200;27.920;2022-11-14T11:27:11;102135.00;;;19.44;43.32
6942;BME280;3510;43.200;27.920;2022-11-14T11:29:40;102164.19;;;19.84;42.75
6942;BME280;3510;43.200;27.920;2022-11-14T11:32:07;102147.56;;;19.29;43.77
6942;BME280;3510;43.200;27.920;2022-11-14T11:34:43;102117.31;;;20.22;42.29
6942;BME280;3510;43.200;27.920;2022-11-14T11:37:20;102120.19;;;19.15;43.89
6942;BME280;3510;43.200;27.920;2022-11-14T11:39:53;102157.03;;;19.06;45.25
6942;BME280;3510;43.200;27.920;2022-11-14T11:42:26;102165.81;;;19.95;42.99
6942;BME280;3510;43.200;27.920;2022-11-14T11:44:59;102163.41;;;19.48;43.94
6942;BME280;3510;43.200;27.920;2022-11-14T11:47:30;102148.69;;;19.32;43.98
6942;BME280;3510;43.200;27.920;2022-11-14T11:50:02;102155.81;;;19.73;43.16
6942;BME280;3510;43.200;27.920;2022-11-14T11:52:33;102129.88;;;19.44;43.48
6942;BME280;3510;43.200;27.920;2022-11-14T11:55:12;102156.94;;;19.53;44.10
6942;BME280;3510;43.200;27.920;2022-11-14T11:57:43;102161.34;;;19.68;43.41
6942;BME280;3510;43.200;27.920;2022-11-14T12:00:15;102149.69;;;19.23;43.90
6942;BME280;3510;43.200;27.920;2022-11-14T12:02:45;102156.81;;;19.64;43.20
6942;BME280;3510;43.200;27.920;2022-11-14T12:05:18;102162.19;;;19.80;42.69
6942;BME280;3510;43.200;27.920;2022-11-14T12:07:56;102151.25;;;19.21;43.58
6942;BME280;3510;43.200;27.920;2022-11-14T12:10:27;102143.09;;;20.25;41.61
6942;BME280;3510;43.200;27.920;2022-11-14T12:16:35;102140.16;;;18.61;44.29
6942;BME280;3510;43.200;27.920;2022-11-14T12:19:38;102142.19;;;19.86;42.29
6942;BME280;3510;43.200;27.920;2022-11-14T12:22:24;102143.47;;;19.68;42.63
6942;BME280;3510;43.200;27.920;2022-11-14T12:28:33;102133.88;;;18.92;44.05
6942;BME280;3510;43.200;27.920;2022-11-14T12:31:09;102137.19;;;19.39;43.62
6942;BME280;3510;43.200;27.920;2022-11-14T12:33:42;102110.44;;;18.85;43.35
6942;BME280;3510;43.200;27.920;2022-11-14T12:36:11;102145.28;;;18.85;44.15
6942;BME280;3510;43.200;27.920;2022-11-14T12:38:44;102135.88;;;19.44;43.41
6942;BME280;3510;43.200;27.920;2022-11-14T12:41:21;102144.50;;;19.58;42.94
6942;BME280;3510;43.200;27.920;2022-11-14T12:43:50;102144.19;;;19.42;42.58
6942;BME280;3510;43.200;27.920;2022-11-14T12:46:17;102127.59;;;19.60;42.18
6942;BME280;3510;43.200;27.920;2022-11-14T12:48:45;102141.38;;;19.50;43.03
6942;BME280;3510;43.200;27.920;2022-11-14T12:51:47;102146.69;;;19.65;42.48
6942;BME280;3510;43.200;27.920;2022-11-14T12:54:43;102158.59;;;19.04;42.91
6942;BME280;3510;43.200;27.920;2022-11-14T12:57:20;102118.56;;;18.92;43.49
6942;BME280;3510;43.200;27.920;2022-11-14T13:00:10;102148.91;;;19.24;43.09
6942;BME280;3510;43.200;27.920;2022-11-14T13:03:03;102142.78;;;19.33;42.62
6942;BME280;3510;43.200;27.920;2022-11-14T13:05:47;102125.75;;;18.62;43.76
6942;BME280;3510;43.200;27.920;2022-11-14T13:08:45;102143.97;;;19.62;42.06
6942;BME280;3510;43.200;27.920;2022-11-14T13:11:39;102128.59;;;19.25;42.51
6942;BME280;3510;43.200;27.920;2022-11-14T13:14:24;102142.50;;;19.66;41.79
6942;BME280;3510;43.200;27.920;2022-11-14T13:17:22;102148.47;;;19.18;42.21
6942;BME280;3510;43.200;27.920;2022-11-14T13:20:27;102137.38;;;18.58;43.57
6942;BME280;3510;43.200;27.920;2022-11-14T13:26:40;102131.38;;;19.53;41.81
6942;BME280;3510;43.200;27.920;2022-11-14T13:35:44;102122.78;;;19.28;42.90
6942;BME280;3510;43.200;27.920;2022-11-14T13:42:14;102126.06;;;19.87;41.76
6942;BME280;3510;43.200;27.920;2022-11-14T13:45:14;102122.66;;;18.78;43.91